Time;durP1;ratioP1;P1;durP2;ratioP2;P2;SDS_P1;SDS_P2;PMS_P1;PMS_P2;Temp;Humidity;BMP_temperature;BMP_pressure;BME280_temperature;BME280_humidity;BME280_pressure;Samples;Min_cycle;Max_cycle;Signal;HPM_P1;HPM_P2
2021/12/10 00:00:43;;;;;;;44.23;10.17;;;;;;;5.91;100.00;96729.81;5082052;28;20595;-67
2021/12/10 00:03:15;;;;;;;46.67;10.23;;;;;;;5.89;100.00;96723.94;5084329;28;21075;-67
2021/12/10 00:05:48;;;;;;;67.27;10.30;;;;;;;5.57;100.00;96718.03;5082163;28;20608;-66
2021/12/10 00:08:16;;;;;;;52.10;9.20;;;;;;;5.72;100.00;96720.72;5080625;28;20641;-66
2021/12/10 00:10:47;;;;;;;60.00;15.97;;;;;;;6.05;100.00;96714.97;5082227;28;20618;-66
2021/12/10 00:13:15;;;;;;;59.57;10.97;;;;;;;5.91;100.00;96708.59;5084110;28;20671;-66
2021/12/10 00:15:43;;;;;;;51.63;9.93;;;;;;;6.04;100.00;96708.06;5082142;28;20629;-67
2021/12/10 00:18:14;;;;;;;60.80;11.07;;;;;;;6.14;100.00;96700.16;5080466;28;20633;-67
2021/12/10 00:20:42;;;;;;;43.30;10.77;;;;;;;6.18;100.00;96692.47;5082912;28;20587;-66
2021/12/10 00:23:14;;;;;;;39.50;10.37;;;;;;;6.18;100.00;96695.91;5083850;28;20617;-66
2021/12/10 00:25:45;;;;;;;39.93;10.10;;;;;;;6.17;100.00;96696.16;5080737;28;20637;-66
2021/12/10 00:28:18;;;;;;;57.40;11.60;;;;;;;6.17;100.00;96685.56;5080450;28;20665;-66
2021/12/10 00:31:04;;;;;;;68.00;11.23;;;;;;;6.08;100.00;96692.44;5082381;28;20591;-66
2021/12/10 00:33:36;;;;;;;51.70;10.80;;;;;;;6.18;100.00;96687.97;5083102;28;20633;-66
2021/12/10 00:36:04;;;;;;;51.20;10.30;;;;;;;6.19;100.00;96678.94;5080236;28;20602;-66
2021/12/10 00:38:32;;;;;;;37.23;10.03;;;;;;;6.17;100.00;96678.41;5079352;28;20641;-66
2021/12/10 00:41:00;;;;;;;36.13;9.63;;;;;;;5.89;100.00;96670.97;5083672;28;20620;-67
2021/12/10 00:43:26;;;;;;;23.77;8.97;;;;;;;6.04;100.00;96670.97;5083559;28;20741;-67
2021/12/10 00:45:53;;;;;;;61.57;10.87;;;;;;;6.07;100.00;96667.00;5080103;28;21189;-66
2021/12/10 00:48:20;;;;;;;42.13;9.93;;;;;;;6.10;100.00;96658.50;5079964;28;20603;-66
2021/12/10 00:50:49;;;;;;;67.53;10.57;;;;;;;6.09;100.00;96657.75;5073940;28;20606;-66
2021/12/10 00:53:16;;;;;;;31.77;9.10;;;;;;;5.86;100.00;96659.03;5083385;28;20646;-67
2021/12/10 00:55:45;;;;;;;36.47;9.47;;;;;;;6.02;100.00;96646.59;5081236;28;20602;-66
2021/12/10 00:58:12;;;;;;;41.00;10.27;;;;;;;6.03;100.00;96653.50;5079798;28;20634;-65
2021/12/10 01:00:43;;;;;;;34.20;9.93;;;;;;;6.03;100.00;96648.22;5081095;28;20637;-67
2021/12/10 01:03:13;;;;;;;80.87;11.47;;;;;;;6.15;100.00;96640.78;5083281;28;20606;-65
2021/12/10 01:05:41;;;;;;;37.73;8.90;;;;;;;6.09;100.00;96641.03;5081265;28;20595;-65
2021/12/10 01:08:08;;;;;;;35.87;8.27;;;;;;;6.11;100.00;96630.97;5079602;28;21046;-65
2021/12/10 01:10:40;;;;;;;36.23;8.73;;;;;;;6.08;100.00;96634.16;5080114;28;20681;-66
2021/12/10 01:13:14;;;;;;;42.37;8.90;;;;;;;6.02;100.00;96630.72;5082954;28;20642;-66
2021/12/10 01:15:54;;;;;;;34.77;8.97;;;;;;;6.10;100.00;96627.50;5081048;28;20594;-65
2021/12/10 01:23:58;;;;;;;119.50;12.27;;;;;;;6.15;100.00;96608.97;5056004;28;20619;-66
2021/12/10 01:26:53;;;;;;;45.83;9.80;;;;;;;6.17;100.00;96606.06;5079211;28;20609;-67
2021/12/10 01:29:24;;;;;;;43.13;8.07;;;;;;;6.19;100.00;96599.41;5079316;28;20615;-66
2021/12/10 01:31:52;;;;;;;25.60;8.03;;;;;;;6.09;100.00;96591.50;5082022;28;20704;-66
2021/12/10 01:34:19;;;;;;;49.87;8.17;;;;;;;6.16;100.00;96583.28;5082688;28;20602;-66
2021/12/10 01:36:47;;;;;;;46.80;7.87;;;;;;;6.08;100.00;96591.75;5080079;28;20602;-66
2021/12/10 01:39:19;;;;;;;56.13;8.70;;;;;;;6.07;100.00;96582.19;5079043;28;20596;-66
2021/12/10 01:41:54;;;;;;;49.67;9.13;;;;;;;6.06;100.00;96585.94;5081394;28;20603;-66
2021/12/10 01:44:28;;;;;;;27.23;7.67;;;;;;;5.64;100.00;96575.53;5082491;28;20606;-66
2021/12/10 01:46:58;;;;;;;37.77;9.00;;;;;;;5.78;100.00;96566.84;5078880;28;20653;-66
2021/12/10 01:49:26;;;;;;;60.57;9.27;;;;;;;5.48;100.00;96571.31;5078209;28;20615;-66
2021/12/10 01:51:53;;;;;;;45.90;7.47;;;;;;;5.53;100.00;96564.16;5078787;28;20595;-66
2021/12/10 01:54:23;;;;;;;34.17;7.70;;;;;;;5.31;100.00;96561.75;5078830;28;20642;-65
2021/12/10 01:56:51;;;;;;;58.67;9.70;;;;;;;5.31;100.00;96548.50;5081687;28;20607;-66
2021/12/10 01:59:20;;;;;;;38.50;8.50;;;;;;;5.40;100.00;96549.59;5082108;28;20617;-67
2021/12/10 02:01:53;;;;;;;53.00;8.00;;;;;;;5.58;100.00;96542.19;5079526;28;20602;-65
2021/12/10 02:04:24;;;;;;;41.40;8.30;;;;;;;5.44;100.00;96540.06;5078592;28;21413;-65
2021/12/10 02:06:53;;;;;;;50.30;8.40;;;;;;;5.21;100.00;96540.53;5081517;28;20605;-66
2021/12/10 02:09:19;;;;;;;37.53;8.53;;;;;;;4.89;100.00;96529.34;5081867;28;20644;-65
2021/12/10 02:11:46;;;;;;;91.40;10.70;;;;;;;5.01;100.00;96531.78;5079103;28;20614;-65
2021/12/10 02:14:13;;;;;;;35.63;8.27;;;;;;;5.06;100.00;96527.28;5078217;28;20654;-66
2021/12/10 02:16:42;;;;;;;56.07;9.33;;;;;;;5.06;100.00;96523.84;5079763;28;20603;-66
2021/12/10 02:19:13;;;;;;;35.33;7.47;;;;;;;4.87;100.00;96508.47;5075987;28;20622;-66
2021/12/10 02:21:41;;;;;;;67.23;8.70;;;;;;;5.03;100.00;96511.13;5077479;28;20609;-66
2021/12/10 02:24:10;;;;;;;55.30;9.00;;;;;;;5.08;100.00;96506.66;5078357;28;20611;-67
2021/12/10 02:26:40;;;;;;;40.67;7.33;;;;;;;5.21;100.00;96505.34;5079091;28;20603;-66
2021/12/10 02:29:07;;;;;;;82.47;10.83;;;;;;;5.28;100.00;96504.03;5081640;28;20625;-67
2021/12/10 02:31:35;;;;;;;31.80;7.47;;;;;;;5.28;100.00;96498.75;5080762;28;20632;-66
2021/12/10 02:34:02;;;;;;;67.63;8.90;;;;;;;5.42;100.00;96486.56;5076977;28;20646;-67
2021/12/10 02:36:29;;;;;;;40.63;8.17;;;;;;;5.34;100.00;96481.81;5078019;28;20598;-66
2021/12/10 02:38:58;;;;;;;40.30;7.60;;;;;;;4.95;100.00;96483.34;5081545;28;20636;-66
2021/12/10 02:41:28;;;;;;;50.80;8.87;;;;;;;4.61;100.00;96476.91;5081321;28;20640;-66
2021/12/10 02:43:55;;;;;;;41.57;7.63;;;;;;;4.46;100.00;96480.28;5078025;28;20603;-66
2021/12/10 02:46:22;;;;;;;40.10;8.87;;;;;;;4.54;100.00;96466.59;5077970;28;20633;-66
2021/12/10 02:48:49;;;;;;;40.43;8.03;;;;;;;4.87;100.00;96466.13;5077826;28;20604;-66
2021/12/10 02:51:17;;;;;;;22.83;7.57;;;;;;;5.08;100.00;96460.88;5076261;28;20609;-67
2021/12/10 02:53:46;;;;;;;38.30;6.83;;;;;;;5.35;100.00;96461.44;5078986;28;20646;-66
2021/12/10 02:56:17;;;;;;;42.67;6.77;;;;;;;5.53;100.00;96457.44;5077917;28;20619;-66
2021/12/10 02:58:45;;;;;;;73.27;8.67;;;;;;;5.50;100.00;96453.50;5079678;28;20629;-66
2021/12/10 03:01:16;;;;;;;69.83;9.80;;;;;;;5.44;100.00;96442.13;5081243;28;20609;-66
2021/12/10 03:03:43;;;;;;;34.37;7.00;;;;;;;5.50;100.00;96432.31;5079056;28;20602;-66
2021/12/10 03:06:13;;;;;;;71.77;7.87;;;;;;;5.45;100.00;96435.75;5077727;28;20603;-66
2021/12/10 03:08:43;;;;;;;36.43;8.00;;;;;;;5.22;100.00;96431.00;5078998;28;20625;-66
2021/12/10 03:11:11;;;;;;;20.97;7.17;;;;;;;5.28;100.00;96416.72;5081121;28;21448;-66
2021/12/10 03:13:41;;;;;;;45.87;7.20;;;;;;;5.57;100.00;96424.09;5079630;28;20718;-66
2021/12/10 03:16:09;;;;;;;69.13;8.50;;;;;;;4.94;100.00;96420.13;5077677;28;20611;-66
2021/12/10 03:18:37;;;;;;;39.17;7.50;;;;;;;5.11;100.00;96408.22;5079496;28;20695;-67
2021/12/10 03:21:04;;;;;;;44.57;7.60;;;;;;;5.22;100.00;96414.31;5081183;28;20601;-66
2021/12/10 03:23:31;;;;;;;68.37;9.97;;;;;;;5.19;100.00;96414.84;5080646;28;20633;-67
2021/12/10 03:25:58;;;;;;;129.60;12.23;;;;;;;5.23;100.00;96411.41;5077458;28;20599;-66
2021/12/10 03:28:24;;;;;;;33.07;7.33;;;;;;;5.11;100.00;96412.72;5077415;28;21244;-67
2021/12/10 03:30:55;;;;;;;63.23;8.57;;;;;;;4.99;100.00;96407.69;5080753;28;20602;-66
2021/12/10 03:33:21;;;;;;;74.97;8.47;;;;;;;5.14;100.00;96412.19;5083582;28;20664;-66
2021/12/10 03:35:50;;;;;;;62.63;8.77;;;;;;;5.05;100.00;96409.28;5082274;28;20594;-65
2021/12/10 03:38:20;;;;;;;21.77;7.43;;;;;;;5.27;100.00;96406.38;5081585;28;20599;-66
2021/12/10 03:40:47;;;;;;;59.13;8.27;;;;;;;5.10;100.00;96396.06;5083885;28;20592;-67
2021/12/10 03:43:15;;;;;;;41.47;7.97;;;;;;;5.14;100.00;96391.03;5084947;28;20617;-66
2021/12/10 03:45:46;;;;;;;26.40;6.43;;;;;;;5.15;100.00;96389.97;5082977;28;20620;-66
2021/12/10 03:48:17;;;;;;;25.90;7.20;;;;;;;5.31;100.00;96392.34;5080188;28;21157;-67
2021/12/10 03:50:46;;;;;;;78.53;11.13;;;;;;;5.29;100.00;96386.50;5074783;28;20633;-66
2021/12/10 03:53:14;;;;;;;42.27;7.90;;;;;;;5.27;100.00;96386.00;5084782;28;20641;-66
2021/12/10 03:55:42;;;;;;;37.67;7.20;;;;;;;5.23;100.00;96377.00;5082717;28;21148;-66
2021/12/10 03:58:09;;;;;;;60.00;9.00;;;;;;;4.98;100.00;96376.22;5081150;28;20595;-66
2021/12/10 04:00:39;;;;;;;61.20;9.27;;;;;;;4.84;100.00;96370.66;5081820;28;20618;-66
2021/12/10 04:03:07;;;;;;;25.30;7.37;;;;;;;4.79;100.00;96368.00;5084546;28;20606;-66
2021/12/10 04:05:35;;;;;;;91.50;10.57;;;;;;;4.72;100.00;96370.13;5083588;28;20632;-67
2021/12/10 04:08:02;;;;;;;70.57;9.63;;;;;;;4.83;100.00;96369.06;5080902;28;20599;-66
2021/12/10 04:10:29;;;;;;;63.30;8.87;;;;;;;4.55;100.00;96372.22;5080529;28;20668;-66
2021/12/10 04:12:56;;;;;;;34.10;8.13;;;;;;;4.62;100.00;96362.16;5080898;28;20638;-67
2021/12/10 04:15:24;;;;;;;29.70;8.47;;;;;;;4.62;100.00;96365.59;5080818;28;20625;-66
2021/12/10 04:17:52;;;;;;;37.57;7.93;;;;;;;4.62;100.00;96359.53;5083707;28;20702;-67
2021/12/10 04:20:21;;;;;;;56.70;8.27;;;;;;;4.58;100.00;96355.84;5085861;28;20595;-66
2021/12/10 04:22:49;;;;;;;32.23;8.10;;;;;;;4.65;100.00;96351.06;5083074;28;20603;-66
2021/12/10 04:25:19;;;;;;;55.43;8.77;;;;;;;4.98;100.00;96340.00;5083865;28;20602;-66
2021/12/10 04:27:47;;;;;;;63.27;10.20;;;;;;;4.64;100.00;96350.25;5081443;28;20626;-66
2021/12/10 04:30:15;;;;;;;88.93;11.17;;;;;;;4.36;100.00;96353.41;5080411;28;20625;-66
2021/12/10 04:32:43;;;;;;;41.87;8.67;;;;;;;4.52;100.00;96347.09;5081917;28;20618;-65
2021/12/10 04:35:11;;;;;;;63.90;10.63;;;;;;;4.36;100.00;96342.84;5083916;28;20660;-66
2021/12/10 04:37:38;;;;;;;53.23;9.63;;;;;;;4.13;100.00;96344.09;5082382;28;20609;-66
2021/12/10 04:40:10;;;;;;;41.53;8.57;;;;;;;4.10;100.00;96344.63;5080206;28;20603;-66
2021/12/10 04:42:36;;;;;;;61.70;10.33;;;;;;;4.32;100.00;96334.66;5080765;28;20603;-67
2021/12/10 04:45:05;;;;;;;57.80;10.30;;;;;;;4.38;100.00;96330.16;5083457;28;20614;-66
2021/12/10 04:47:33;;;;;;;61.13;10.57;;;;;;;4.14;100.00;96329.03;5083100;28;20644;-66
2021/12/10 04:50:00;;;;;;;49.50;9.07;;;;;;;4.08;100.00;96320.31;5071693;28;20626;-66
2021/12/10 04:52:27;;;;;;;39.00;8.83;;;;;;;3.79;100.00;96317.31;5079969;28;21159;-66
2021/12/10 04:54:54;;;;;;;44.43;9.53;;;;;;;3.54;100.00;96313.75;5071694;28;20638;-66
2021/12/10 04:57:22;;;;;;;43.20;10.23;;;;;;;3.47;100.00;96318.47;5071569;28;20591;-66
2021/12/10 04:59:49;;;;;;;42.43;9.33;;;;;;;3.33;100.00;96310.25;5071592;28;20599;-66
2021/12/10 05:02:18;;;;;;;46.10;9.53;;;;;;;3.15;100.00;96314.09;5071631;28;20603;-67
2021/12/10 05:04:46;;;;;;;40.97;9.07;;;;;;;3.12;100.00;96303.25;5071410;28;20611;-66
2021/12/10 05:07:15;;;;;;;49.13;10.10;;;;;;;3.13;100.00;96303.00;5071499;28;20607;-66
2021/12/10 05:09:42;;;;;;;45.80;10.80;;;;;;;3.38;100.00;96312.09;5071157;28;20618;-66
2021/12/10 05:12:10;;;;;;;72.03;12.03;;;;;;;3.43;100.00;96298.94;5071270;28;20626;-67
2021/12/10 05:14:38;;;;;;;61.07;10.30;;;;;;;3.23;100.00;96305.69;5071020;28;20646;-65
2021/12/10 05:17:08;;;;;;;55.23;11.10;;;;;;;3.43;100.00;96304.22;5079593;28;20668;-65
2021/12/10 05:19:36;;;;;;;63.37;10.17;;;;;;;3.56;100.00;96306.41;5088160;28;20610;-66
2021/12/10 05:22:06;;;;;;;68.50;10.83;;;;;;;3.65;100.00;96302.22;5079529;28;20629;-66
2021/12/10 05:24:33;;;;;;;45.40;9.97;;;;;;;3.59;100.00;96308.53;5079608;28;20677;-66
2021/12/10 05:27:01;;;;;;;40.87;10.03;;;;;;;3.84;100.00;96303.31;5082877;28;20624;-66
2021/12/10 05:29:28;;;;;;;62.03;9.90;;;;;;;3.66;100.00;96301.16;5082740;28;20609;-65
2021/12/10 05:31:58;;;;;;;48.53;9.73;;;;;;;3.63;100.00;96296.38;5079281;28;20664;-65
2021/12/10 05:34:26;;;;;;;51.57;9.37;;;;;;;3.65;100.00;96297.72;5079240;28;20623;-66
2021/12/10 05:36:53;;;;;;;49.27;9.90;;;;;;;3.70;100.00;96291.66;5082335;28;20632;-66
2021/12/10 05:39:23;;;;;;;51.60;9.57;;;;;;;3.69;100.00;96290.88;5082721;28;20594;-66
2021/12/10 05:41:51;;;;;;;54.37;9.20;;;;;;;3.37;100.00;96286.78;5079643;28;20603;-66
2021/12/10 05:44:18;;;;;;;47.47;9.53;;;;;;;3.46;100.00;96285.25;5078922;28;20683;-66
2021/12/10 05:46:44;;;;;;;44.87;8.90;;;;;;;3.33;100.00;96275.16;5080934;28;20603;-66
2021/12/10 05:49:13;;;;;;;114.67;12.17;;;;;;;3.09;100.00;96272.94;5076535;28;20630;-66
2021/12/10 05:51:40;;;;;;;70.23;10.90;;;;;;;2.98;100.00;96273.91;5078716;28;20609;-65
2021/12/10 05:54:07;;;;;;;90.97;10.67;;;;;;;3.12;100.00;96269.78;5078653;28;21155;-65
2021/12/10 05:56:35;;;;;;;27.23;7.47;;;;;;;3.44;100.00;96267.00;5078627;28;20625;-66
2021/12/10 05:59:01;;;;;;;99.80;12.90;;;;;;;3.35;100.00;96273.84;5082341;28;20633;-66
2021/12/10 06:01:29;;;;;;;39.73;9.27;;;;;;;3.63;100.00;96268.16;5082030;28;20590;-66
2021/12/10 06:03:56;;;;;;;54.57;10.17;;;;;;;3.50;100.00;96252.00;5078564;28;20674;-65
2021/12/10 06:06:26;;;;;;;59.57;10.30;;;;;;;3.13;100.00;96260.00;5078423;28;20603;-65
2021/12/10 06:08:54;;;;;;;27.67;7.80;;;;;;;3.25;100.00;96253.47;5081655;28;20637;-66
2021/12/10 06:11:23;;;;;;;60.10;12.80;;;;;;;3.34;100.00;96255.63;5081807;28;20618;-66
2021/12/10 06:13:49;;;;;;;54.07;11.00;;;;;;;3.43;100.00;96248.81;5078780;28;20615;-65
2021/12/10 06:16:17;;;;;;;77.50;11.97;;;;;;;3.23;100.00;96245.03;5078062;28;20638;-65
2021/12/10 06:18:44;;;;;;;51.23;11.37;;;;;;;3.33;100.00;96246.13;5081135;28;20603;-65
2021/12/10 06:21:11;;;;;;;45.03;9.90;;;;;;;3.64;100.00;96247.84;5081686;28;20633;-66
2021/12/10 06:23:39;;;;;;;66.93;10.90;;;;;;;3.69;100.00;96234.63;5080287;28;20646;-66
2021/12/10 06:26:07;;;;;;;65.27;10.40;;;;;;;3.76;100.00;96240.47;5077999;28;20626;-66
2021/12/10 06:28:35;;;;;;;62.00;11.60;;;;;;;3.79;100.00;96232.84;5078520;28;20609;-66
2021/12/10 06:31:02;;;;;;;55.80;10.87;;;;;;;3.60;100.00;96239.63;5081441;28;20594;-66
2021/12/10 06:33:29;;;;;;;41.07;8.43;;;;;;;3.56;100.00;96229.88;5081439;28;20640;-66
2021/12/10 06:36:01;;;;;;;58.67;10.10;;;;;;;3.62;100.00;96226.19;5078087;28;20607;-66
2021/12/10 06:38:28;;;;;;;73.43;10.77;;;;;;;3.75;100.00;96226.47;5077747;28;20610;-65
2021/12/10 06:40:56;;;;;;;60.47;10.20;;;;;;;3.96;100.00;96222.03;5069375;28;20600;-66
2021/12/10 06:43:23;;;;;;;48.63;10.73;;;;;;;4.14;100.00;96228.66;5069495;28;20606;-66
2021/12/10 06:45:51;;;;;;;70.07;11.30;;;;;;;4.32;100.00;96223.66;5069531;28;20633;-65
2021/12/10 06:48:20;;;;;;;69.53;9.63;;;;;;;4.42;100.00;96222.88;5069483;28;20615;-65
2021/12/10 06:50:49;;;;;;;69.63;10.53;;;;;;;4.40;100.00;96210.94;5071653;28;20626;-66
2021/12/10 06:53:19;;;;;;;36.40;10.60;;;;;;;4.06;100.00;96206.19;5080249;28;20652;-66
2021/12/10 06:55:46;;;;;;;58.33;11.23;;;;;;;3.78;100.00;96206.69;5078803;28;20606;-65
2021/12/10 06:58:14;;;;;;;49.93;9.50;;;;;;;3.55;100.00;96200.03;5077612;28;20607;-65
2021/12/10 07:00:45;;;;;;;76.47;11.57;;;;;;;3.68;100.00;96191.59;5079055;28;20603;-66
2021/12/10 07:03:14;;;;;;;61.40;12.13;;;;;;;3.43;100.00;96190.75;5081027;28;20632;-66
2021/12/10 07:05:42;;;;;;;69.03;11.70;;;;;;;2.93;100.00;96189.50;5078992;28;20659;-65
2021/12/10 07:08:09;;;;;;;85.97;13.70;;;;;;;3.00;100.00;96187.41;5077459;28;20611;-66
2021/12/10 07:10:36;;;;;;;57.10;10.83;;;;;;;2.85;100.00;96183.94;5077896;28;20676;-65
2021/12/10 07:13:06;;;;;;;56.37;13.97;;;;;;;2.67;100.00;96190.41;5081083;28;20602;-66
2021/12/10 07:15:35;;;;;;;44.20;11.90;;;;;;;2.45;100.00;96187.09;5080231;28;20606;-66
2021/12/10 07:18:02;;;;;;;83.03;13.33;;;;;;;2.21;100.00;96176.13;5077422;28;20614;-66
2021/12/10 07:20:28;;;;;;;52.10;12.70;;;;;;;2.27;100.00;96182.22;5078449;28;20599;-66
2021/12/10 07:22:55;;;;;;;32.43;9.43;;;;;;;2.17;100.00;96167.94;5069234;28;20595;-65
2021/12/10 07:25:22;;;;;;;83.23;12.33;;;;;;;2.08;100.00;96172.09;5068847;28;20677;-65
2021/12/10 07:27:50;;;;;;;87.27;12.17;;;;;;;2.08;100.00;96169.44;5069009;28;20598;-65
2021/12/10 07:30:18;;;;;;;80.83;11.87;;;;;;;2.03;100.00;96169.41;5076181;28;20603;-66
2021/12/10 07:32:47;;;;;;;89.90;14.23;;;;;;;2.00;100.00;96163.88;5068853;28;20633;-67
2021/12/10 07:35:14;;;;;;;55.87;13.40;;;;;;;2.06;100.00;96158.38;5068781;28;20642;-64
2021/12/10 07:37:41;;;;;;;49.80;10.53;;;;;;;1.98;100.00;96164.09;5075965;28;20594;-66
2021/12/10 07:40:11;;;;;;;95.13;12.63;;;;;;;2.00;100.00;96151.50;5076991;28;20633;-66
2021/12/10 07:42:37;;;;;;;55.03;11.20;;;;;;;2.07;100.00;96157.31;5078196;28;20615;-65
2021/12/10 07:45:06;;;;;;;71.07;11.60;;;;;;;1.90;100.00;96150.59;5080468;28;20703;-65
2021/12/10 07:47:36;;;;;;;34.07;7.90;;;;;;;1.89;100.00;96146.41;5080047;28;20629;-66
2021/12/10 07:50:08;;;;;;;41.63;10.13;;;;;;;2.10;100.00;96146.28;5078368;28;20626;-66
2021/12/10 07:52:35;;;;;;;39.07;10.57;;;;;;;2.01;100.00;96139.13;5077766;28;20675;-65
2021/12/10 07:55:06;;;;;;;56.50;12.30;;;;;;;1.83;100.00;96134.22;5080419;28;20602;-65
2021/12/10 07:57:33;;;;;;;88.23;13.57;;;;;;;1.94;100.00;96134.06;5079879;28;20610;-65
2021/12/10 07:59:59;;;;;;;47.30;10.30;;;;;;;1.77;100.00;96128.13;5077036;28;20611;-65
2021/12/10 08:02:27;;;;;;;54.67;10.90;;;;;;;2.10;100.00;96124.47;5077060;28;20603;-66
2021/12/10 08:04:53;;;;;;;66.40;12.20;;;;;;;1.87;100.00;96128.22;5080285;28;20691;-65
2021/12/10 08:07:21;;;;;;;60.50;13.20;;;;;;;2.04;100.00;96125.47;5080342;28;20602;-65
2021/12/10 08:09:48;;;;;;;74.50;14.27;;;;;;;2.14;100.00;96115.00;5077601;28;20598;-65
2021/12/10 08:12:15;;;;;;;63.47;13.03;;;;;;;2.22;100.00;96121.63;5076776;28;20626;-65
2021/12/10 08:14:42;;;;;;;52.77;12.00;;;;;;;2.60;100.00;96113.44;5078710;28;20601;-65
2021/12/10 08:17:10;;;;;;;74.23;12.03;;;;;;;2.97;100.00;96100.16;5080322;28;20743;-66
2021/12/10 08:19:36;;;;;;;72.53;12.40;;;;;;;3.27;100.00;96108.16;5083307;28;20602;-66
2021/12/10 08:22:04;;;;;;;60.37;10.67;;;;;;;3.24;100.00;96098.13;5080327;28;20705;-66
2021/12/10 08:24:32;;;;;;;67.90;12.17;;;;;;;3.54;100.00;96100.00;5080337;28;20665;-66
2021/12/10 08:26:58;;;;;;;88.83;12.03;;;;;;;3.52;100.00;96094.22;5084022;28;20600;-65
2021/12/10 08:29:26;;;;;;;47.63;10.63;;;;;;;3.62;100.00;96100.28;5083989;28;20609;-65
2021/12/10 08:31:53;;;;;;;79.53;12.00;;;;;;;3.97;100.00;96085.50;5080655;28;20638;-65
2021/12/10 08:34:20;;;;;;;39.13;8.60;;;;;;;3.86;100.00;96086.56;5080352;28;20626;-66
2021/12/10 08:36:47;;;;;;;55.50;10.80;;;;;;;4.17;100.00;96081.00;5082570;28;20591;-65
2021/12/10 08:39:14;;;;;;;63.93;10.93;;;;;;;3.94;100.00;96084.19;5083908;28;20624;-66
2021/12/10 08:41:43;;;;;;;73.30;8.93;;;;;;;3.94;100.00;96083.38;5082044;28;20616;-65
2021/12/10 08:44:11;;;;;;;76.00;12.70;;;;;;;4.16;100.00;96086.53;5079153;28;20611;-65
2021/12/10 08:46:42;;;;;;;46.60;9.77;;;;;;;4.56;100.00;96078.53;5081021;28;20603;-65
2021/12/10 08:49:10;;;;;;;61.60;10.40;;;;;;;4.75;100.00;96081.38;5078204;28;20603;-66
2021/12/10 08:51:39;;;;;;;52.63;8.57;;;;;;;4.54;100.00;96078.00;5080047;28;20605;-66
2021/12/10 08:54:07;;;;;;;81.87;9.20;;;;;;;3.84;100.00;96070.97;5078974;28;20611;-66
2021/12/10 08:56:35;;;;;;;30.93;7.47;;;;;;;3.83;100.00;96079.19;5080390;28;20611;-66
2021/12/10 08:59:04;;;;;;;59.07;8.37;;;;;;;3.71;100.00;96077.56;5083498;28;20602;-65
2021/12/10 09:01:33;;;;;;;51.67;9.27;;;;;;;3.31;100.00;96067.00;5083059;28;20602;-66
2021/12/10 09:04:02;;;;;;;73.23;9.87;;;;;;;3.24;100.00;96072.53;5079585;28;20599;-66
2021/12/10 09:06:32;;;;;;;47.10;9.33;;;;;;;3.10;100.00;96060.88;5079778;28;20670;-65
2021/12/10 09:08:59;;;;;;;56.00;9.00;;;;;;;2.98;100.00;96065.59;5079647;28;20599;-66
2021/12/10 09:11:27;;;;;;;53.60;9.17;;;;;;;3.00;100.00;96060.84;5079711;28;20661;-65
2021/12/10 09:13:54;;;;;;;34.70;6.90;;;;;;;2.65;100.00;96058.91;5082841;28;20587;-66
2021/12/10 09:16:27;;;;;;;82.30;9.17;;;;;;;2.73;100.00;96054.97;5083051;28;20606;-65
2021/12/10 09:18:57;;;;;;;72.93;10.60;;;;;;;2.53;100.00;96060.97;5082601;28;20610;-65
2021/12/10 09:21:24;;;;;;;61.80;7.60;;;;;;;2.94;100.00;96056.63;5081492;28;20602;-66
2021/12/10 09:23:53;;;;;;;37.07;7.97;;;;;;;2.69;100.00;96049.41;5079876;28;20949;-65
2021/12/10 09:26:24;;;;;;;50.60;8.60;;;;;;;2.74;100.00;96040.75;5079252;28;20710;-66
2021/12/10 09:28:50;;;;;;;34.67;8.63;;;;;;;2.59;100.00;96038.06;5082095;28;20612;-65
2021/12/10 09:31:17;;;;;;;54.70;6.77;;;;;;;2.53;100.00;96039.91;5082762;28;20594;-65
2021/12/10 09:33:45;;;;;;;51.83;9.17;;;;;;;2.24;100.00;96037.91;5080648;28;20602;-65
2021/12/10 09:36:12;;;;;;;40.73;7.77;;;;;;;2.29;100.00;96037.94;5079113;28;20665;-65
2021/12/10 09:38:39;;;;;;;56.23;9.27;;;;;;;2.41;100.00;96031.41;5080235;28;20602;-66
2021/12/10 09:41:09;;;;;;;81.90;11.60;;;;;;;2.62;100.00;96037.56;5082356;28;20629;-67
2021/12/10 09:43:37;;;;;;;50.17;8.63;;;;;;;2.73;100.00;96033.88;5081332;28;20598;-66
2021/12/10 09:46:04;;;;;;;54.57;9.73;;;;;;;2.41;100.00;96025.34;5077916;28;20673;-66
2021/12/10 09:48:32;;;;;;;44.57;8.27;;;;;;;2.36;100.00;96012.94;5078539;28;20606;-65
2021/12/10 09:51:04;;;;;;;53.33;6.70;;;;;;;2.21;100.00;96019.97;5074841;28;20681;-66
2021/12/10 09:53:34;;;;;;;56.00;8.43;;;;;;;2.12;100.00;96004.69;5082052;28;20611;-66
2021/12/10 09:56:01;;;;;;;49.40;8.20;;;;;;;2.15;100.00;96004.16;5078932;28;20622;-66
2021/12/10 09:58:29;;;;;;;32.70;7.67;;;;;;;2.27;100.00;95992.63;5078762;28;20611;-66
2021/12/10 10:00:58;;;;;;;47.53;9.10;;;;;;;2.35;100.00;95989.50;5070581;28;20610;-65
2021/12/10 10:03:28;;;;;;;53.67;8.47;;;;;;;2.36;100.00;95981.34;5070494;28;20686;-65
2021/12/10 10:05:56;;;;;;;72.97;9.03;;;;;;;2.48;100.00;95978.47;5070525;28;20658;-65
2021/12/10 10:08:27;;;;;;;64.00;8.50;;;;;;;2.43;100.00;95979.25;5070527;28;20698;-65
2021/12/10 10:10:57;;;;;;;44.10;7.60;;;;;;;2.30;100.00;95971.81;5069152;28;20635;-66
2021/12/10 10:13:29;;;;;;;28.27;5.87;;;;;;;2.43;100.00;95968.72;5070219;28;20603;-66
2021/12/10 10:15:58;;;;;;;31.83;8.27;;;;;;;2.42;100.00;95964.50;5073912;28;20606;-66
2021/12/10 10:18:27;;;;;;;57.70;8.93;;;;;;;2.65;100.00;95957.97;5081934;28;20624;-66
2021/12/10 10:20:58;;;;;;;58.50;9.30;;;;;;;2.68;100.00;95958.25;5082103;28;20590;-65
2021/12/10 10:23:27;;;;;;;44.70;8.37;;;;;;;2.66;100.00;95946.41;5081975;28;20602;-66
2021/12/10 10:25:58;;;;;;;42.93;8.57;;;;;;;2.66;100.00;95943.78;5078425;28;20638;-65
2021/12/10 10:28:25;;;;;;;26.67;5.60;;;;;;;2.70;100.00;95934.25;5078260;28;20607;-65
2021/12/10 10:30:59;;;;;;;27.77;6.03;;;;;;;2.63;100.00;95933.75;5081332;28;20601;-66
2021/12/10 10:33:27;;;;;;;66.93;8.77;;;;;;;2.71;100.00;95927.97;5081612;28;20606;-65
2021/12/10 10:35:57;;;;;;;42.70;7.20;;;;;;;2.54;100.00;95930.00;5078030;28;20737;-66
2021/12/10 10:38:27;;;;;;;43.70;5.40;;;;;;;2.57;100.00;95930.28;5078138;28;20682;-66
2021/12/10 10:40:57;;;;;;;33.13;6.93;;;;;;;2.66;100.00;95922.69;5080883;28;20602;-65
2021/12/10 10:43:25;;;;;;;44.77;7.57;;;;;;;2.84;100.00;95921.38;5081389;28;20640;-66
2021/12/10 10:45:53;;;;;;;63.43;7.67;;;;;;;2.86;100.00;95908.72;5078090;28;20647;-66
2021/12/10 10:48:20;;;;;;;49.77;6.70;;;;;;;2.84;100.00;95905.56;5076731;28;20602;-65
2021/12/10 10:50:51;;;;;;;64.17;7.47;;;;;;;3.12;100.00;95903.22;5071624;28;20623;-65
2021/12/10 10:53:20;;;;;;;39.23;7.40;;;;;;;3.33;100.00;95900.53;5081409;28;20598;-66
2021/12/10 10:55:53;;;;;;;65.17;6.20;;;;;;;3.29;100.00;95895.00;5078848;28;20633;-66
2021/12/10 10:58:22;;;;;;;42.37;4.93;;;;;;;3.22;100.00;95892.63;5077508;28;20595;-66
2021/12/10 11:00:59;;;;;;;90.20;8.67;;;;;;;3.24;100.00;95885.28;5079769;28;20645;-66
2021/12/10 11:03:36;;;;;;;70.17;7.53;;;;;;;3.13;100.00;95870.50;5080795;28;20594;-66
2021/12/10 11:06:05;;;;;;;110.50;8.80;;;;;;;3.09;100.00;95873.94;5077153;28;20720;-65
2021/12/10 11:08:34;;;;;;;103.73;8.77;;;;;;;2.95;100.00;95884.22;5077167;28;20634;-66
2021/12/10 11:11:15;;;;;;;69.00;6.37;;;;;;;2.98;100.00;95870.50;5080383;28;20634;-66
2021/12/10 11:13:43;;;;;;;47.93;4.40;;;;;;;2.72;100.00;95874.22;5079021;28;20605;-66
2021/12/10 11:16:14;;;;;;;77.80;4.70;;;;;;;2.78;100.00;95875.00;5077022;28;20607;-65
2021/12/10 11:18:51;;;;;;;72.10;5.90;;;;;;;2.85;100.00;95878.16;5079704;28;20595;-66
2021/12/10 11:21:32;;;;;;;123.77;31.83;;;;;;;3.76;100.00;95863.78;5080627;28;20617;-66
2021/12/10 11:24:08;;;;;;;509.23;252.50;;;;;;;6.67;100.00;95863.31;5076940;28;20603;-65
2021/12/10 11:26:45;;;;;;;903.97;596.23;;;;;;;8.32;100.00;95838.59;5077364;28;20660;-66
2021/12/10 11:29:36;;;;;;;143.60;31.23;;;;;;;8.90;100.00;95814.66;5080545;28;20727;-66
2021/12/10 11:32:08;;;;;;;162.23;12.53;;;;;;;5.39;100.00;95801.56;5075399;28;20699;-65
2021/12/10 11:34:50;;;;;;;83.43;8.53;;;;;;;4.05;100.00;95813.75;5077210;28;20870;-65